Time;durP1;ratioP1;P1;durP2;ratioP2;P2;SDS_P1;SDS_P2;PMS_P1;PMS_P2;Temp;Humidity;BMP_temperature;BMP_pressure;BME280_temperature;BME280_humidity;BME280_pressure;Samples;Min_cycle;Max_cycle;Signal;HPM_P1;HPM_P2
2022/02/05 00:01:27;;;;;;;6.57;2.73;;;4.60;99.90;;;;;;5095995;28;20209;-83
2022/02/05 00:03:59;;;;;;;7.93;2.70;;;4.60;99.90;;;;;;5096167;28;20434;-82
2022/02/05 00:06:33;;;;;;;9.07;2.40;;;4.50;99.90;;;;;;5096149;28;20585;-85
2022/02/05 00:09:04;;;;;;;6.53;2.20;;;4.50;99.90;;;;;;5095956;28;20460;-83
2022/02/05 00:11:56;;;;;;;5.97;2.27;;;4.60;99.90;;;;;;5096294;28;20495;-82
2022/02/05 00:14:38;;;;;;;11.23;2.77;;;4.50;99.90;;;;;;5095526;28;20489;-83
2022/02/05 00:20:28;;;;;;;9.60;2.50;;;4.50;99.90;;;;;;5095751;28;20424;-81
2022/02/05 00:42:27;;;;;;;9.07;2.43;;;4.60;99.90;;;;;;5084506;28;20472;-85
2022/02/05 00:44:56;;;;;;;5.73;2.00;;;4.60;99.90;;;;;;5094626;28;20936;-84
2022/02/05 00:47:23;;;;;;;5.63;2.50;;;4.60;99.90;;;;;;5095719;28;20196;-84
2022/02/05 00:49:57;;;;;;;6.13;2.50;;;4.60;99.90;;;;;;5095892;28;20456;-84
2022/02/05 00:52:29;;;;;;;7.93;2.80;;;4.60;99.90;;;;;;5094540;28;20450;-85
2022/02/05 00:55:04;;;;;;;7.73;2.60;;;4.60;99.90;;;;;;5095721;28;20299;-85
2022/02/05 01:00:18;;;;;;;8.87;2.07;;;4.50;99.90;;;;;;5092204;28;20483;-86
2022/02/05 01:02:45;;;;;;;7.17;2.03;;;4.50;99.90;;;;;;5095144;28;20426;-85
2022/02/05 01:05:13;;;;;;;8.63;2.13;;;4.50;99.90;;;;;;5094647;28;20456;-86
2022/02/05 01:07:42;;;;;;;6.93;2.30;;;4.50;99.90;;;;;;5094912;28;20437;-85
2022/02/05 01:10:10;;;;;;;9.00;2.37;;;4.50;99.90;;;;;;5094892;28;20447;-85
2022/02/05 01:12:41;;;;;;;9.85;3.10;;;4.40;99.90;;;;;;5093769;28;20433;-84
2022/02/05 01:15:17;;;;;;;5.60;2.40;;;4.50;99.90;;;;;;5094496;28;20246;-85
2022/02/05 01:17:48;;;;;;;5.03;2.40;;;4.40;99.90;;;;;;5094992;28;20230;-85
2022/02/05 01:23:05;;;;;;;5.00;2.40;;;4.40;99.90;;;;;;5094724;28;20420;-84
2022/02/05 01:25:39;;;;;;;5.07;2.20;;;4.40;99.90;;;;;;5094642;28;20433;-84
2022/02/05 01:28:11;;;;;;;8.77;2.63;;;4.40;99.90;;;;;;5093917;28;20921;-86
2022/02/05 01:30:42;;;;;;;6.67;2.43;;;4.40;99.90;;;;;;5094624;28;20481;-84
2022/02/05 01:33:28;;;;;;;11.17;2.60;;;4.40;99.90;;;;;;5093019;28;20861;-82
2022/02/05 01:36:12;;;;;;;4.17;2.07;;;4.40;99.90;;;;;;5093798;28;20786;-82
2022/02/05 01:52:30;;;;;;;8.40;2.23;;;4.30;99.90;;;;;;5093488;28;20449;-83
2022/02/05 01:55:13;;;;;;;10.00;2.30;;;4.30;99.90;;;;;;5093801;28;20480;-83
2022/02/05 02:06:10;;;;;;;7.40;2.43;;;4.20;99.90;;;;;;5094027;28;20932;-80
2022/02/05 02:11:34;;;;;;;6.27;2.30;;;4.10;99.90;;;;;;5093414;28;21027;-84
2022/02/05 02:19:33;;;;;;;8.73;2.73;;;4.20;99.90;;;;;;5090688;28;20794;-84
2022/02/05 02:22:07;;;;;;;13.37;2.40;;;4.20;99.90;;;;;;5093801;28;20449;-80
2022/02/05 02:24:45;;;;;;;5.80;2.20;;;4.20;99.90;;;;;;5093313;28;20936;-83
2022/02/05 02:27:22;;;;;;;4.27;2.10;;;4.20;99.90;;;;;;5093087;28;20901;-85
2022/02/05 02:30:00;;;;;;;8.02;2.42;;;4.20;99.90;;;;;;5102624;28;20704;-87
2022/02/05 02:32:28;;;;;;;6.27;2.23;;;4.30;99.90;;;;;;5113787;28;20279;-82
2022/02/05 02:35:02;;;;;;;9.87;2.03;;;4.30;99.90;;;;;;5113465;28;20929;-84
2022/02/05 02:37:36;;;;;;;8.17;2.10;;;4.30;99.90;;;;;;5113346;28;20510;-84
2022/02/05 02:40:09;;;;;;;4.80;1.90;;;4.30;99.90;;;;;;5113589;27;20447;-84
2022/02/05 02:42:42;;;;;;;6.50;2.50;;;4.30;99.90;;;;;;5112530;28;20479;-86
2022/02/05 02:45:09;;;;;;;9.10;2.47;;;4.20;99.90;;;;;;5113416;28;20440;-78
2022/02/05 02:47:41;;;;;;;7.90;2.60;;;4.20;99.90;;;;;;5113253;28;20497;-83
2022/02/05 02:50:13;;;;;;;13.00;2.30;;;4.30;99.90;;;;;;5112717;28;20547;-84
2022/02/05 02:58:18;;;;;;;9.80;2.37;;;4.10;99.90;;;;;;5092838;28;20686;-81
2022/02/05 03:00:48;;;;;;;7.00;2.40;;;4.30;99.90;;;;;;5093093;28;20449;-84
2022/02/05 03:03:16;;;;;;;7.37;2.23;;;4.30;99.90;;;;;;5092632;28;20924;-83
2022/02/05 03:05:42;;;;;;;8.23;1.97;;;4.30;99.90;;;;;;5093066;28;20454;-83
2022/02/05 03:08:11;;;;;;;11.30;2.10;;;4.20;99.90;;;;;;5093050;28;20446;-85
2022/02/05 03:10:39;;;;;;;9.73;2.23;;;4.30;99.90;;;;;;5092344;28;20882;-86
2022/02/05 03:13:07;;;;;;;12.10;2.50;;;4.20;99.90;;;;;;5092638;28;20452;-85
2022/02/05 03:15:42;;;;;;;6.20;1.90;;;4.30;99.90;;;;;;5092710;28;20507;-83
2022/02/05 03:18:15;;;;;;;6.80;2.20;;;4.30;99.90;;;;;;5093002;28;20429;-85
2022/02/05 03:20:41;;;;;;;10.90;2.63;;;4.30;99.90;;;;;;5091517;28;20457;-81
2022/02/05 03:23:11;;;;;;;8.67;1.87;;;4.30;99.90;;;;;;5092832;28;20441;-79
2022/02/05 03:25:38;;;;;;;16.87;5.23;;;4.30;99.90;;;;;;5092596;28;20502;-81
2022/02/05 03:28:05;;;;;;;8.67;2.10;;;4.30;99.90;;;;;;5092514;28;20441;-85
2022/02/05 03:30:32;;;;;;;8.02;2.50;;;4.40;99.90;;;;;;5092113;28;20427;-83
2022/02/05 03:33:02;;;;;;;7.97;2.10;;;4.40;99.90;;;;;;5092933;28;20534;-81
2022/02/05 03:35:36;;;;;;;7.33;2.27;;;4.30;99.90;;;;;;5093843;28;20489;-81
2022/02/05 03:38:03;;;;;;;12.10;2.83;;;4.30;99.90;;;;;;5092310;28;20524;-82
2022/02/05 03:40:31;;;;;;;11.97;2.00;;;4.40;99.90;;;;;;5091977;28;20438;-80
2022/02/05 03:42:59;;;;;;;7.83;1.90;;;4.40;99.90;;;;;;5091937;28;20473;-82
2022/02/05 03:45:28;;;;;;;8.20;2.10;;;4.40;99.90;;;;;;5092508;28;20442;-84
2022/02/05 03:47:55;;;;;;;8.20;1.93;;;4.40;99.90;;;;;;5092584;28;20438;-83
2022/02/05 03:50:22;;;;;;;9.73;2.27;;;4.40;99.90;;;;;;5092240;28;20446;-84
2022/02/05 03:52:48;;;;;;;8.33;2.10;;;4.40;99.90;;;;;;5092033;28;20446;-86
2022/02/05 03:55:15;;;;;;;9.73;2.27;;;4.40;99.90;;;;;;5092345;28;20465;-84
2022/02/05 03:57:44;;;;;;;10.20;1.83;;;4.40;99.90;;;;;;5092085;28;20442;-84
2022/02/05 04:00:12;;;;;;;11.43;2.83;;;4.40;99.90;;;;;;5095775;28;20430;-84
2022/02/05 04:02:39;;;;;;;16.00;2.50;;;4.40;99.90;;;;;;5096015;28;20438;-84
2022/02/05 04:05:07;;;;;;;6.60;2.20;;;4.30;99.90;;;;;;5095947;28;20452;-85
2022/02/05 04:07:39;;;;;;;6.07;1.90;;;4.30;99.90;;;;;;5095760;28;20449;-80
2022/02/05 04:10:09;;;;;;;9.70;2.50;;;4.30;99.90;;;;;;5095851;28;20442;-83
2022/02/05 04:18:09;;;;;;;9.03;2.03;;;4.30;99.90;;;;;;5095755;28;20413;-87
2022/02/05 04:20:39;;;;;;;7.60;1.80;;;4.30;99.90;;;;;;5095596;28;20441;-86
2022/02/05 04:23:06;;;;;;;7.43;2.53;;;4.30;99.90;;;;;;5095525;28;20445;-85
2022/02/05 04:25:35;;;;;;;11.40;2.00;;;4.20;99.90;;;;;;5095906;28;20675;-85
2022/02/05 04:28:05;;;;;;;14.37;2.70;;;4.20;99.90;;;;;;5095441;28;20437;-85
2022/02/05 04:30:34;;;;;;;7.37;2.27;;;4.20;99.90;;;;;;5095868;28;20430;-86
2022/02/05 04:33:01;;;;;;;7.03;1.90;;;4.10;99.90;;;;;;5095582;28;20422;-82
2022/02/05 04:35:28;;;;;;;9.43;2.57;;;4.20;99.90;;;;;;5095208;28;20489;-83
2022/02/05 04:37:58;;;;;;;11.13;2.60;;;4.10;99.90;;;;;;5108163;28;20445;-85
2022/02/05 04:40:28;;;;;;;9.90;2.30;;;4.10;99.90;;;;;;5115655;28;20456;-85
2022/02/05 04:43:11;;;;;;;10.17;2.40;;;4.10;99.90;;;;;;5115958;28;20491;-84
2022/02/05 04:46:09;;;;;;;8.10;2.60;;;4.00;99.90;;;;;;5115642;28;20877;-86
2022/02/05 04:49:00;;;;;;;12.47;2.30;;;4.10;99.90;;;;;;5115659;28;20459;-85
2022/02/05 04:57:20;;;;;;;12.67;2.20;;;4.20;99.90;;;;;;5115331;28;20546;-86
2022/02/05 05:00:03;;;;;;;11.83;2.47;;;4.10;99.90;;;;;;5115564;27;20440;-84
2022/02/05 05:05:35;;;;;;;11.07;2.27;;;4.00;99.90;;;;;;5114715;28;20447;-84
2022/02/05 05:19:36;;;;;;;12.67;2.27;;;3.90;99.90;;;;;;5111870;28;20474;-84
2022/02/05 05:22:04;;;;;;;9.40;2.13;;;3.90;99.90;;;;;;5111296;28;20446;-85
2022/02/05 05:24:32;;;;;;;11.03;2.40;;;3.80;99.90;;;;;;5112140;28;20429;-86
2022/02/05 05:27:00;;;;;;;11.03;2.17;;;3.80;99.90;;;;;;5111172;28;20795;-85
2022/02/05 05:29:27;;;;;;;13.43;2.90;;;3.80;99.90;;;;;;5109835;28;20441;-86
2022/02/05 05:31:53;;;;;;;14.70;3.00;;;3.90;99.90;;;;;;5110414;28;20227;-86
2022/02/05 05:34:22;;;;;;;5.27;2.63;;;3.80;99.90;;;;;;5110487;28;20440;-86
2022/02/05 05:36:53;;;;;;;10.50;2.27;;;3.80;99.90;;;;;;5110657;28;20939;-85
2022/02/05 05:39:20;;;;;;;8.23;2.37;;;3.80;99.90;;;;;;5110956;28;20448;-85
2022/02/05 05:41:49;;;;;;;9.80;2.07;;;3.80;99.90;;;;;;5110495;28;20468;-85
2022/02/05 05:47:21;;;;;;;7.63;1.87;;;3.80;99.90;;;;;;5109828;28;20433;-85
2022/02/05 05:50:00;;;;;;;12.57;3.13;;;3.80;99.90;;;;;;5108953;28;20996;-83
2022/02/05 05:52:29;;;;;;;15.87;2.40;;;3.80;99.90;;;;;;5110500;28;20875;-84
2022/02/05 05:54:57;;;;;;;10.27;2.57;;;3.80;99.90;;;;;;5110597;28;20452;-87
2022/02/05 05:57:25;;;;;;;11.13;2.60;;;3.80;99.90;;;;;;5110269;28;20451;-85
2022/02/05 05:59:54;;;;;;;9.47;2.60;;;3.80;99.90;;;;;;5110442;28;20437;-84
2022/02/05 06:02:21;;;;;;;15.67;2.63;;;3.70;99.90;;;;;;5098591;28;20979;-83
2022/02/05 06:04:48;;;;;;;11.50;2.90;;;3.70;99.90;;;;;;5089476;28;20446;-85
2022/02/05 06:07:15;;;;;;;5.97;2.27;;;3.70;99.90;;;;;;5089572;28;20438;-88
2022/02/05 06:09:43;;;;;;;9.43;3.10;;;3.60;99.90;;;;;;5089153;28;20454;-87
2022/02/05 06:12:12;;;;;;;12.60;2.93;;;3.60;99.90;;;;;;5089293;28;20619;-83
2022/02/05 06:14:40;;;;;;;6.73;2.57;;;3.60;99.90;;;;;;5089847;28;20454;-87
2022/02/05 06:17:10;;;;;;;9.80;2.20;;;3.50;99.90;;;;;;5089608;28;20802;-85
2022/02/05 06:19:40;;;;;;;11.37;2.70;;;3.50;99.90;;;;;;5088948;28;20823;-84
2022/02/05 06:22:07;;;;;;;13.00;2.70;;;3.50;99.90;;;;;;5076620;28;20446;-84
2022/02/05 06:24:34;;;;;;;14.13;2.40;;;3.40;99.90;;;;;;5076077;28;20444;-83
2022/02/05 06:27:01;;;;;;;13.97;3.67;;;3.40;99.90;;;;;;5075960;28;20525;-85
2022/02/05 06:29:28;;;;;;;13.47;2.23;;;3.50;99.90;;;;;;5075646;28;20965;-86
2022/02/05 06:31:54;;;;;;;17.40;2.67;;;3.50;99.90;;;;;;5074129;28;20443;-86
2022/02/05 06:34:23;;;;;;;8.33;2.67;;;3.50;99.90;;;;;;5075490;28;20438;-85
2022/02/05 06:36:51;;;;;;;7.70;2.00;;;3.50;99.90;;;;;;5075720;28;20513;-82
2022/02/05 06:39:17;;;;;;;8.10;2.50;;;3.50;99.90;;;;;;5075597;28;20435;-81
2022/02/05 06:41:51;;;;;;;8.57;2.07;;;3.60;99.90;;;;;;5075772;28;20460;-85
2022/02/05 06:44:24;;;;;;;8.73;2.73;;;3.60;99.90;;;;;;5085808;28;20449;-85
2022/02/05 06:46:51;;;;;;;13.20;2.27;;;3.60;99.90;;;;;;5091302;28;20449;-84
2022/02/05 06:49:19;;;;;;;11.47;2.37;;;3.60;99.90;;;;;;5094812;28;20448;-82
2022/02/05 06:51:48;;;;;;;13.67;2.63;;;3.60;99.90;;;;;;5095232;28;20816;-83
2022/02/05 06:54:14;;;;;;;11.07;2.50;;;3.60;99.90;;;;;;5095211;28;20437;-83
2022/02/05 06:56:41;;;;;;;10.70;2.57;;;3.60;99.90;;;;;;5094968;28;20894;-85
2022/02/05 06:59:08;;;;;;;10.43;2.60;;;3.60;99.90;;;;;;5095261;28;20438;-87
2022/02/05 07:01:37;;;;;;;5.37;1.90;;;3.60;99.90;;;;;;5095321;28;20437;-84
2022/02/05 07:04:05;;;;;;;16.30;2.93;;;3.60;99.90;;;;;;5095060;28;20537;-84
2022/02/05 07:06:32;;;;;;;13.93;2.70;;;3.60;99.90;;;;;;5094797;28;20947;-81
2022/02/05 07:09:03;;;;;;;13.17;3.07;;;3.60;99.90;;;;;;5094178;28;20435;-86
2022/02/05 07:11:30;;;;;;;11.77;2.63;;;3.60;99.90;;;;;;5093639;28;20221;-83
2022/02/05 07:13:57;;;;;;;14.77;2.67;;;3.60;99.90;;;;;;5095253;28;20445;-83
2022/02/05 07:16:30;;;;;;;12.07;3.00;;;3.60;99.90;;;;;;5094242;28;20477;-84
2022/02/05 07:19:10;;;;;;;8.70;2.43;;;3.60;99.90;;;;;;5094674;28;20816;-83
2022/02/05 07:21:41;;;;;;;6.40;2.20;;;3.60;99.90;;;;;;5094107;28;20457;-84
2022/02/05 07:24:20;;;;;;;9.53;2.60;;;3.60;99.90;;;;;;5094651;28;20859;-83
2022/02/05 07:29:32;;;;;;;8.77;2.23;;;3.60;99.90;;;;;;5094273;28;20946;-83
2022/02/05 07:31:59;;;;;;;6.50;2.33;;;3.60;99.90;;;;;;5094169;28;20445;-79
2022/02/05 07:34:28;;;;;;;10.50;2.60;;;3.60;99.90;;;;;;5093492;28;20441;-83
2022/02/05 07:37:00;;;;;;;8.80;2.27;;;3.60;99.90;;;;;;5094311;28;20450;-83
2022/02/05 07:39:29;;;;;;;8.67;2.67;;;3.60;99.90;;;;;;5094400;28;20438;-85
2022/02/05 07:41:56;;;;;;;5.93;2.53;;;3.60;99.90;;;;;;5094539;28;20465;-85
2022/02/05 07:44:23;;;;;;;7.00;2.53;;;3.50;99.90;;;;;;5094143;28;20438;-83
2022/02/05 07:46:52;;;;;;;11.97;3.50;;;3.50;99.90;;;;;;5094383;28;20438;-88
2022/02/05 07:49:22;;;;;;;14.37;2.33;;;3.60;99.90;;;;;;5093969;28;20989;-85
2022/02/05 07:51:50;;;;;;;11.50;3.00;;;3.60;99.90;;;;;;5094078;28;20505;-81
2022/02/05 07:54:17;;;;;;;12.10;3.07;;;3.60;99.90;;;;;;5093867;28;20433;-86
2022/02/05 07:56:46;;;;;;;9.33;2.50;;;3.60;99.90;;;;;;5094015;28;20449;-80
2022/02/05 07:59:14;;;;;;;15.47;2.87;;;3.70;99.90;;;;;;5093643;28;20457;-82
2022/02/05 08:01:41;;;;;;;6.97;2.50;;;3.70;99.90;;;;;;5094205;28;20446;-83
2022/02/05 08:04:08;;;;;;;5.97;2.57;;;3.80;99.90;;;;;;5093714;28;20446;-81
2022/02/05 08:06:35;;;;;;;8.37;2.50;;;3.70;99.90;;;;;;5093944;28;20492;-82
2022/02/05 08:09:05;;;;;;;14.23;3.20;;;3.70;99.90;;;;;;5093702;28;20544;-84
2022/02/05 08:11:38;;;;;;;9.53;3.07;;;3.70;99.90;;;;;;5093460;28;20539;-84
2022/02/05 08:14:08;;;;;;;8.03;2.93;;;3.80;99.90;;;;;;5093418;28;20462;-83
2022/02/05 08:16:54;;;;;;;17.67;3.60;;;3.80;99.90;;;;;;5093812;28;20446;-85
2022/02/05 08:19:21;;;;;;;9.60;2.90;;;3.90;99.90;;;;;;5092972;28;20446;-84
2022/02/05 08:21:49;;;;;;;10.93;2.70;;;4.00;99.90;;;;;;5093972;28;20992;-83
2022/02/05 08:24:16;;;;;;;12.57;3.20;;;3.90;99.90;;;;;;5093455;28;20510;-82
2022/02/05 08:26:43;;;;;;;10.43;2.50;;;4.00;99.90;;;;;;5093385;28;20430;-81
2022/02/05 08:29:13;;;;;;;11.50;3.78;;;4.00;99.90;;;;;;5092612;28;20438;-82
2022/02/05 08:31:40;;;;;;;12.53;3.03;;;4.10;99.90;;;;;;5093258;28;20851;-82
2022/02/05 08:34:07;;;;;;;8.23;2.47;;;4.10;99.90;;;;;;5093302;28;20453;-83
2022/02/05 08:36:41;;;;;;;5.50;2.50;;;4.20;99.90;;;;;;5093540;28;20441;-83
2022/02/05 08:39:09;;;;;;;6.53;2.20;;;4.30;99.90;;;;;;5093356;28;20446;-83
2022/02/05 08:41:36;;;;;;;9.87;2.97;;;4.30;99.90;;;;;;5092951;28;20504;-82
2022/02/05 08:44:03;;;;;;;6.03;1.90;;;4.30;99.90;;;;;;5092343;28;20463;-83
2022/02/05 08:46:32;;;;;;;8.50;2.13;;;4.30;99.90;;;;;;5093119;28;20452;-80
2022/02/05 08:48:59;;;;;;;6.73;2.30;;;4.30;99.90;;;;;;5091671;28;20438;-83
2022/02/05 08:51:26;;;;;;;10.67;2.60;;;4.30;99.90;;;;;;5091529;28;20505;-80
2022/02/05 08:53:54;;;;;;;6.13;2.00;;;4.30;99.90;;;;;;5092966;28;20457;-81
2022/02/05 08:56:22;;;;;;;7.50;2.30;;;4.30;99.90;;;;;;5093097;28;20458;-83
2022/02/05 08:58:49;;;;;;;10.50;2.27;;;4.40;99.90;;;;;;5092644;28;20442;-82
2022/02/05 09:01:19;;;;;;;9.73;2.27;;;4.50;99.90;;;;;;5093167;28;20767;-85
2022/02/05 09:03:58;;;;;;;9.77;2.37;;;4.50;99.90;;;;;;5092736;28;20434;-82
2022/02/05 09:06:28;;;;;;;5.63;2.27;;;4.50;99.90;;;;;;5092861;28;20457;-83
2022/02/05 09:09:07;;;;;;;14.25;3.15;;;4.70;99.90;;;;;;5092496;28;20529;-82
2022/02/05 09:11:39;;;;;;;12.30;3.17;;;4.70;99.90;;;;;;5092467;28;20232;-83
2022/02/05 09:14:29;;;;;;;8.40;2.47;;;4.70;99.90;;;;;;5093361;28;20791;-85
2022/02/05 09:16:56;;;;;;;6.43;1.93;;;4.80;99.90;;;;;;5092594;28;20532;-82
2022/02/05 09:19:24;;;;;;;6.70;2.00;;;4.80;99.90;;;;;;5092517;28;20445;-84
2022/02/05 09:21:51;;;;;;;8.33;2.67;;;4.90;99.90;;;;;;5091445;28;20457;-80
2022/02/05 09:24:18;;;;;;;13.77;2.83;;;4.90;99.90;;;;;;5092881;28;20769;-79
2022/02/05 09:26:49;;;;;;;9.17;1.93;;;5.00;99.90;;;;;;5092247;28;20446;-84
2022/02/05 09:29:19;;;;;;;12.52;3.10;;;5.00;99.90;;;;;;5092319;28;20487;-83
2022/02/05 09:31:47;;;;;;;6.53;2.37;;;5.10;99.90;;;;;;5092441;28;20276;-83
2022/02/05 09:34:14;;;;;;;7.40;2.57;;;5.20;99.90;;;;;;5092546;28;20196;-82
2022/02/05 09:36:43;;;;;;;5.17;1.97;;;5.30;99.90;;;;;;5092911;28;20197;-82
2022/02/05 09:39:11;;;;;;;6.77;2.70;;;5.40;99.90;;;;;;5092755;28;20289;-84
2022/02/05 09:41:39;;;;;;;6.93;2.20;;;5.40;99.90;;;;;;5092267;28;20224;-81
2022/02/05 09:44:06;;;;;;;8.17;2.43;;;5.40;99.90;;;;;;5093283;28;20201;-82
2022/02/05 09:46:33;;;;;;;8.20;1.87;;;5.40;99.90;;;;;;5092893;28;20432;-82
2022/02/05 09:49:01;;;;;;;11.90;2.30;;;5.50;99.90;;;;;;5092981;28;20770;-81
2022/02/05 09:51:33;;;;;;;10.90;2.07;;;5.60;99.90;;;;;;5092223;28;20257;-83
2022/02/05 09:54:03;;;;;;;6.80;2.10;;;5.60;99.90;;;;;;5092607;28;20197;-82
2022/02/05 09:56:32;;;;;;;9.23;2.57;;;5.60;99.90;;;;;;5093657;28;20212;-83
2022/02/05 09:59:00;;;;;;;6.60;2.20;;;5.60;99.90;;;;;;5096930;28;20220;-82
2022/02/05 10:01:29;;;;;;;12.00;2.20;;;5.70;99.90;;;;;;5096474;28;20224;-83
2022/02/05 10:03:57;;;;;;;8.67;2.23;;;5.80;99.90;;;;;;5096329;28;20287;-80
2022/02/05 10:06:28;;;;;;;9.17;2.37;;;5.70;99.90;;;;;;5096372;28;20201;-82
2022/02/05 10:08:59;;;;;;;8.13;1.80;;;5.80;99.90;;;;;;5096500;28;20264;-82
2022/02/05 10:11:29;;;;;;;9.63;2.00;;;5.90;99.90;;;;;;5095923;28;20256;-82
2022/02/05 10:13:56;;;;;;;9.00;2.47;;;5.90;99.90;;;;;;5096221;28;20196;-86
2022/02/05 10:16:30;;;;;;;10.00;2.60;;;6.00;99.90;;;;;;5096208;28;20651;-83
2022/02/05 10:18:58;;;;;;;7.47;2.03;;;6.10;99.90;;;;;;5096326;28;20188;-82
2022/02/05 10:21:27;;;;;;;6.70;2.33;;;6.10;99.90;;;;;;5096232;28;20598;-83
2022/02/05 10:23:59;;;;;;;9.57;2.83;;;6.10;99.90;;;;;;5096285;28;20185;-82
2022/02/05 10:26:37;;;;;;;9.87;2.60;;;6.20;99.90;;;;;;5095788;28;20197;-81
2022/02/05 10:29:07;;;;;;;5.63;1.73;;;6.10;99.90;;;;;;5096011;28;20200;-84
2022/02/05 10:32:01;;;;;;;9.68;2.88;;;6.10;99.90;;;;;;5094489;28;20442;-82
2022/02/05 10:34:31;;;;;;;7.40;2.43;;;6.30;99.90;;;;;;5095922;28;20205;-85
2022/02/05 10:37:26;;;;;;;5.47;2.00;;;6.20;99.90;;;;;;5095628;28;20295;-82
2022/02/05 10:40:10;;;;;;;12.37;2.50;;;6.20;99.90;;;;;;5097465;28;20216;-78
2022/02/05 10:43:03;;;;;;;10.17;2.73;;;6.30;99.90;;;;;;5096690;28;20274;-80
2022/02/05 10:45:51;;;;;;;8.70;2.00;;;6.40;99.90;;;;;;5098176;28;20208;-80
2022/02/05 10:48:19;;;;;;;7.10;2.47;;;6.50;99.90;;;;;;5097516;28;20213;-81
2022/02/05 10:50:48;;;;;;;8.25;2.38;;;6.60;99.90;;;;;;5095782;28;20442;-82
2022/02/05 10:53:22;;;;;;;8.90;2.37;;;6.70;99.90;;;;;;5097123;28;20193;-78
2022/02/05 10:56:01;;;;;;;7.57;2.10;;;6.60;99.90;;;;;;5095915;28;20287;-82
2022/02/05 10:58:45;;;;;;;8.47;2.10;;;6.60;99.90;;;;;;5095712;28;20200;-81
2022/02/05 11:07:01;;;;;;;6.07;2.07;;;6.80;99.90;;;;;;5095585;28;20664;-78
2022/02/05 11:09:29;;;;;;;8.70;2.17;;;6.70;99.90;;;;;;5095285;28;20197;-78
2022/02/05 11:18:11;;;;;;;8.60;2.00;;;6.90;99.90;;;;;;5097711;28;20192;-87
2022/02/05 11:20:40;;;;;;;10.53;2.73;;;7.00;99.90;;;;;;5093768;28;20197;-86
2022/02/05 11:23:09;;;;;;;9.63;2.43;;;7.00;99.90;;;;;;5096828;28;20207;-90
2022/02/05 11:25:40;;;;;;;7.80;2.10;;;7.00;99.90;;;;;;5097638;28;20205;-89
2022/02/05 11:28:13;;;;;;;7.23;2.00;;;7.10;99.90;;;;;;5098428;28;20200;-89
2022/02/05 11:30:47;;;;;;;6.73;2.30;;;7.20;99.90;;;;;;5098064;28;20201;-90
2022/02/05 11:33:24;;;;;;;9.13;2.88;;;7.30;99.90;;;;;;5096219;28;20514;-88
2022/02/05 11:36:39;;;;;;;7.80;2.80;;;7.20;99.90;;;;;;5096744;28;20207;-88
2022/02/05 11:39:03;;;;;;;10.73;3.30;;;7.30;99.90;;;;;;5095342;28;20291;-88
2022/02/05 11:41:37;;;;;;;12.40;2.40;;;7.30;99.90;;;;;;5100400;28;20213;-90
2022/02/05 11:44:24;;;;;;;10.93;2.20;;;7.50;99.90;;;;;;5097298;28;20562;-88
2022/02/05 11:47:18;;;;;;;8.67;2.30;;;7.60;99.90;;;;;;5097420;28;20238;-86
2022/02/05 11:50:15;;;;;;;11.80;2.67;;;7.60;99.90;;;;;;5094096;28;20592;-88
2022/02/05 11:53:10;;;;;;;9.03;2.00;;;7.50;99.90;;;;;;5094316;28;20236;-89
2022/02/05 11:55:44;;;;;;;9.67;2.50;;;7.50;99.90;;;;;;5096904;28;20220;-90
2022/02/05 11:58:17;;;;;;;8.43;2.10;;;7.60;99.90;;;;;;5096580;28;20212;-87
2022/02/05 12:00:57;;;;;;;9.13;2.50;;;7.60;99.90;;;;;;5096460;28;20216;-87
2022/02/05 12:03:36;;;;;;;5.70;1.90;;;7.60;99.90;;;;;;5097036;28;20606;-88
2022/02/05 12:06:13;;;;;;;6.23;2.00;;;7.90;99.90;;;;;;5096510;28;20656;-90
2022/02/05 12:08:45;;;;;;;7.83;2.07;;;7.80;99.90;;;;;;5097993;28;20197;-88
2022/02/05 12:11:27;;;;;;;7.30;2.13;;;7.80;99.90;;;;;;5095081;28;20229;-89
2022/02/05 12:14:13;;;;;;;9.90;2.15;;;7.70;99.90;;;;;;5095441;28;20458;-87
2022/02/05 12:17:00;;;;;;;5.13;1.97;;;7.70;99.90;;;;;;5095131;28;20559;-75
2022/02/05 12:19:28;;;;;;;9.43;2.47;;;7.80;99.90;;;;;;5094618;28;20216;-75
2022/02/05 12:21:59;;;;;;;7.57;2.13;;;7.90;99.90;;;;;;5094989;28;20205;-76
2022/02/05 12:24:38;;;;;;;10.57;2.23;;;7.90;99.90;;;;;;5093485;28;20197;-76
2022/02/05 12:27:31;;;;;;;7.60;2.33;;;7.90;99.90;;;;;;5094544;28;20336;-75
2022/02/05 12:30:35;;;;;;;7.77;2.17;;;8.00;99.90;;;;;;5094768;28;20254;-76
2022/02/05 12:33:03;;;;;;;7.17;1.67;;;8.00;99.90;;;;;;5094056;28;20233;-76
2022/02/05 12:35:31;;;;;;;9.17;2.17;;;8.10;99.90;;;;;;5093781;28;20215;-76
2022/02/05 12:38:02;;;;;;;7.83;2.27;;;8.20;99.90;;;;;;5094601;28;20205;-76
2022/02/05 12:40:30;;;;;;;8.50;1.90;;;8.20;99.90;;;;;;5090687;28;20201;-75
2022/02/05 12:42:58;;;;;;;9.20;2.30;;;8.40;99.90;;;;;;5089124;28;20205;-78
2022/02/05 12:45:43;;;;;;;5.43;2.20;;;8.40;99.90;;;;;;5094984;28;20197;-79
2022/02/05 12:48:11;;;;;;;7.77;2.40;;;8.50;99.90;;;;;;5094972;28;20228;-80
2022/02/05 12:50:40;;;;;;;7.43;1.70;;;8.50;99.90;;;;;;5094237;28;20197;-77
2022/02/05 12:53:09;;;;;;;5.87;2.00;;;8.50;99.90;;;;;;5093294;28;20235;-79
2022/02/05 12:55:44;;;;;;;11.43;1.77;;;8.50;99.90;;;;;;5093359;28;20212;-80
2022/02/05 12:58:11;;;;;;;7.70;2.50;;;8.50;99.90;;;;;;5093008;28;20438;-79
2022/02/05 13:00:38;;;;;;;8.70;2.33;;;8.80;99.90;;;;;;5092295;28;20193;-79
2022/02/05 13:03:23;;;;;;;8.37;2.00;;;8.90;99.90;;;;;;5093924;28;20209;-78
2022/02/05 13:05:50;;;;;;;8.70;1.97;;;9.00;99.90;;;;;;5094027;28;20233;-76
2022/02/05 13:08:18;;;;;;;5.63;1.40;;;9.10;99.90;;;;;;5092582;28;20205;-75
2022/02/05 13:10:46;;;;;;;10.17;2.10;;;9.00;99.90;;;;;;5093366;28;20205;-77
2022/02/05 13:13:14;;;;;;;7.53;1.80;;;8.70;99.90;;;;;;5094133;28;20236;-73
2022/02/05 13:15:44;;;;;;;12.83;2.10;;;8.60;99.90;;;;;;5094230;28;20205;-85
2022/02/05 13:18:40;;;;;;;11.20;2.35;;;8.70;99.90;;;;;;5095478;28;20418;-89
2022/02/05 13:27:10;;;;;;;11.40;2.10;;;8.60;99.90;;;;;;5011393;28;20254;-78
2022/02/05 13:29:54;;;;;;;10.90;2.30;;;8.60;99.90;;;;;;5010942;28;20192;-74
2022/02/05 13:35:06;;;;;;;9.20;2.03;;;8.80;99.90;;;;;;5076431;28;20192;-74
2022/02/05 13:37:46;;;;;;;10.27;2.00;;;8.70;99.90;;;;;;5077813;28;20194;-74
2022/02/05 13:40:19;;;;;;;10.43;2.00;;;8.80;99.90;;;;;;5076573;28;20208;-74
2022/02/05 13:42:50;;;;;;;7.73;1.97;;;8.70;99.90;;;;;;5081018;28;20207;-74
2022/02/05 13:45:30;;;;;;;13.03;2.33;;;8.90;99.90;;;;;;5096805;28;20789;-75
2022/02/05 13:47:57;;;;;;;16.50;2.50;;;8.90;99.90;;;;;;5097492;28;20193;-80
2022/02/05 13:50:26;;;;;;;12.47;2.27;;;9.00;99.90;;;;;;5097044;28;20269;-77
2022/02/05 13:52:55;;;;;;;11.47;2.30;;;8.90;99.90;;;;;;5097139;28;20342;-75
2022/02/05 13:55:25;;;;;;;11.27;2.20;;;8.90;99.90;;;;;;5097656;28;20200;-75
2022/02/05 13:57:54;;;;;;;10.90;2.03;;;8.90;99.90;;;;;;5097322;28;20193;-74
2022/02/05 14:00:22;;;;;;;11.43;2.28;;;8.80;99.90;;;;;;5097532;28;20418;-74
2022/02/05 14:02:58;;;;;;;9.37;2.20;;;8.80;99.90;;;;;;5097951;28;20236;-76
2022/02/05 14:05:25;;;;;;;7.60;1.90;;;8.90;99.90;;;;;;5096809;28;20250;-75
2022/02/05 14:07:52;;;;;;;8.20;2.20;;;9.10;99.90;;;;;;5097088;28;20197;-74
2022/02/05 14:10:24;;;;;;;6.67;2.30;;;9.00;99.90;;;;;;5096667;28;20687;-75
2022/02/05 14:12:53;;;;;;;9.07;2.40;;;9.00;99.90;;;;;;5096765;28;20217;-75
2022/02/05 14:15:21;;;;;;;6.63;1.97;;;9.00;99.90;;;;;;5096509;28;20201;-76
2022/02/05 14:18:03;;;;;;;7.00;2.07;;;9.00;99.90;;;;;;5096760;28;20192;-75
2022/02/05 14:20:30;;;;;;;7.57;2.80;;;9.10;99.90;;;;;;5096472;28;20197;-75
2022/02/05 14:23:05;;;;;;;10.63;2.50;;;9.20;99.90;;;;;;5096069;28;20609;-75
2022/02/05 14:25:48;;;;;;;8.83;1.93;;;9.20;99.90;;;;;;5096615;28;20803;-74
2022/02/05 14:28:17;;;;;;;10.40;1.63;;;9.20;99.90;;;;;;5096600;28;20205;-78
2022/02/05 14:31:01;;;;;;;9.40;2.00;;;9.10;99.90;;;;;;5097130;28;20254;-74
2022/02/05 14:33:37;;;;;;;11.67;1.90;;;9.10;99.90;;;;;;5096382;28;20229;-75
2022/02/05 14:36:20;;;;;;;6.23;1.90;;;9.10;99.90;;;;;;5096658;28;20585;-76
2022/02/05 14:41:33;;;;;;;6.23;1.77;;;9.20;99.90;;;;;;5095347;28;20699;-77
2022/02/05 14:43:59;;;;;;;12.00;2.00;;;9.10;99.90;;;;;;5094787;28;20197;-77
2022/02/05 14:46:26;;;;;;;9.32;2.83;;;9.10;99.90;;;;;;5094270;28;20759;-75
2022/02/05 14:48:53;;;;;;;15.10;2.53;;;9.10;99.90;;;;;;5095504;28;20726;-75
2022/02/05 14:51:20;;;;;;;8.57;2.00;;;9.10;99.90;;;;;;5095856;28;20211;-76
2022/02/05 14:53:47;;;;;;;10.83;2.00;;;9.10;99.90;;;;;;5095668;28;20236;-81
2022/02/05 14:56:14;;;;;;;6.70;1.77;;;9.10;99.90;;;;;;5095967;28;20694;-75
2022/02/05 14:58:44;;;;;;;8.43;2.27;;;9.00;99.90;;;;;;5095204;28;20543;-75
2022/02/05 15:01:11;;;;;;;9.30;2.10;;;9.00;99.90;;;;;;5095375;28;20273;-75
2022/02/05 15:03:43;;;;;;;8.33;2.27;;;9.10;99.90;;;;;;5095944;28;20591;-75
2022/02/05 15:06:17;;;;;;;10.50;3.20;;;9.00;99.90;;;;;;5095539;28;20687;-74
2022/02/05 15:08:44;;;;;;;7.70;2.30;;;9.10;99.90;;;;;;5095964;28;20220;-77
2022/02/05 15:11:11;;;;;;;9.60;2.40;;;9.20;99.90;;;;;;5094921;28;20216;-80
2022/02/05 15:13:39;;;;;;;8.83;2.50;;;9.10;99.90;;;;;;5094953;28;20243;-77
2022/02/05 15:16:11;;;;;;;9.60;2.33;;;9.00;99.90;;;;;;5095078;28;20193;-77